createdAt,value
2023-03-30T00:01:02.737Z,5.00
2023-03-30T00:03:29.997Z,5.70
2023-03-30T00:05:57.117Z,4.90
2023-03-30T00:08:28.966Z,5.50
2023-03-30T00:11:07.581Z,5.10
2023-03-30T00:13:36.954Z,5.60
2023-03-30T00:16:06.561Z,5.80
2023-03-30T00:18:37.828Z,5.30
2023-03-30T00:21:05.517Z,5.40
2023-03-30T00:23:32.951Z,5.50
2023-03-30T00:26:00.926Z,5.10
2023-03-30T00:28:30.782Z,5.10
2023-03-30T00:33:37.189Z,4.80
2023-03-30T00:36:10.969Z,5.60
2023-03-30T00:38:37.774Z,4.80
2023-03-30T00:41:04.914Z,5.30
2023-03-30T00:43:33.915Z,5.30
2023-03-30T00:46:01.441Z,5.50
2023-03-30T00:48:34.598Z,5.50
2023-03-30T00:51:07.595Z,5.90
2023-03-30T00:53:38.983Z,5.30
2023-03-30T00:56:09.045Z,5.30
2023-03-30T00:58:38.813Z,5.40
2023-03-30T01:01:10.596Z,5.30
2023-03-30T01:03:48.050Z,5.00
2023-03-30T01:06:18.257Z,4.90
2023-03-30T01:11:12.381Z,5.00
2023-03-30T01:13:44.743Z,5.50
2023-03-30T01:16:25.475Z,5.00
2023-03-30T01:19:36.240Z,4.80
2023-03-30T01:22:16.668Z,5.20
2023-03-30T01:25:11.317Z,5.00
2023-03-30T01:28:04.667Z,4.70
2023-03-30T01:30:48.604Z,6.20
2023-03-30T01:33:44.313Z,5.50
2023-03-30T01:36:38.828Z,4.60
2023-03-30T01:39:22.035Z,4.80
2023-03-30T01:42:09.419Z,4.30
2023-03-30T01:44:48.511Z,4.30
2023-03-30T01:47:22.734Z,4.00
2023-03-30T01:50:17.523Z,4.40
2023-03-30T01:52:53.922Z,4.70
2023-03-30T01:55:29.364Z,4.40
2023-03-30T01:58:07.948Z,4.10
2023-03-30T02:00:38.335Z,4.10
2023-03-30T02:03:14.097Z,4.60
2023-03-30T02:05:45.135Z,4.70
2023-03-30T02:08:17.291Z,4.60
2023-03-30T02:10:45.923Z,4.50
2023-03-30T02:13:14.724Z,4.50
2023-03-30T02:15:46.082Z,4.00
2023-03-30T02:18:12.831Z,4.20
2023-03-30T02:20:40.443Z,4.30
2023-03-30T02:23:07.751Z,4.30
2023-03-30T02:25:41.100Z,4.20
2023-03-30T02:28:08.595Z,4.30
2023-03-30T02:30:39.151Z,4.10
2023-03-30T02:33:07.547Z,3.90
2023-03-30T02:35:36.981Z,4.50
2023-03-30T02:38:29.741Z,4.20
2023-03-30T02:41:10.478Z,3.60
2023-03-30T02:43:56.794Z,3.50
2023-03-30T02:46:26.669Z,3.70
2023-03-30T02:51:48.186Z,3.90
2023-03-30T02:54:55.216Z,3.80
2023-03-30T02:57:27.914Z,3.50
2023-03-30T03:00:08.558Z,4.60
2023-03-30T03:02:43.997Z,4.00
2023-03-30T03:05:13.405Z,3.70
2023-03-30T03:07:40.904Z,3.50
2023-03-30T03:10:09.158Z,3.30
2023-03-30T03:12:36.308Z,3.40
2023-03-30T03:15:05.785Z,3.60
2023-03-30T03:17:35.515Z,4.00
2023-03-30T03:20:04.534Z,4.10
2023-03-30T03:22:31.769Z,4.30
2023-03-30T03:24:58.507Z,3.90
2023-03-30T03:27:25.265Z,4.40
2023-03-30T03:29:51.953Z,4.00
2023-03-30T03:32:18.655Z,3.90
2023-03-30T03:34:45.907Z,4.30
2023-03-30T03:37:13.388Z,3.80
2023-03-30T03:39:40.125Z,4.00
2023-03-30T03:42:07.627Z,4.70
2023-03-30T03:44:34.370Z,4.80
2023-03-30T03:47:01.290Z,7.30
2023-03-30T03:49:27.974Z,6.40
2023-03-30T03:51:54.673Z,5.50
2023-03-30T03:54:21.367Z,5.60
2023-03-30T03:56:48.125Z,5.10
2023-03-30T03:59:14.855Z,4.80
2023-03-30T04:01:41.648Z,4.00
2023-03-30T04:04:08.535Z,4.30
2023-03-30T04:06:35.469Z,4.10
2023-03-30T04:09:02.608Z,3.80
2023-03-30T04:11:29.278Z,3.70
2023-03-30T04:13:56.203Z,3.50
2023-03-30T04:16:23.021Z,4.10
2023-03-30T04:18:49.706Z,3.40
2023-03-30T04:21:17.815Z,3.70
2023-03-30T04:23:49.064Z,4.00
2023-03-30T04:26:17.720Z,3.40
2023-03-30T04:28:44.661Z,3.80
2023-03-30T04:31:13.114Z,3.80
2023-03-30T04:33:52.283Z,3.60
2023-03-30T04:36:20.965Z,3.60
2023-03-30T04:39:03.529Z,3.30
2023-03-30T04:41:36.161Z,3.30
2023-03-30T04:44:09.205Z,4.00
2023-03-30T04:46:37.393Z,4.80
2023-03-30T04:49:04.985Z,4.80
2023-03-30T04:51:31.840Z,5.20
2023-03-30T04:53:58.703Z,5.10
2023-03-30T04:56:26.291Z,4.70
2023-03-30T04:58:53.179Z,4.20
2023-03-30T05:01:20.013Z,4.60
2023-03-30T05:03:46.781Z,4.80
2023-03-30T05:06:14.237Z,4.80
2023-03-30T05:08:41.958Z,5.20
2023-03-30T05:11:08.932Z,4.00
2023-03-30T05:13:35.689Z,3.60
2023-03-30T05:16:02.780Z,3.80
2023-03-30T05:18:29.676Z,3.70
2023-03-30T05:20:58.826Z,4.30
2023-03-30T05:23:26.790Z,3.60
2023-03-30T05:25:55.346Z,4.00
2023-03-30T05:28:23.039Z,14.80
2023-03-30T05:30:56.227Z,6.20
2023-03-30T05:33:23.079Z,4.40
2023-03-30T05:35:50.459Z,4.30
2023-03-30T05:38:18.692Z,3.90
2023-03-30T05:40:45.468Z,3.80
2023-03-30T05:43:12.570Z,4.10
2023-03-30T05:45:39.828Z,4.10
2023-03-30T05:48:07.084Z,4.10
2023-03-30T05:50:33.835Z,4.40
2023-03-30T05:53:00.953Z,4.50
2023-03-30T05:55:28.021Z,4.80
2023-03-30T05:57:55.063Z,5.00
2023-03-30T06:00:23.242Z,4.40
2023-03-30T06:02:50.443Z,3.90
2023-03-30T06:05:17.406Z,4.40
2023-03-30T06:07:45.856Z,4.20
2023-03-30T06:10:13.353Z,4.70
2023-03-30T06:12:40.451Z,5.10
2023-03-30T06:15:09.295Z,4.30
2023-03-30T06:17:37.030Z,4.00
2023-03-30T06:20:11.574Z,3.90
2023-03-30T06:22:42.009Z,4.40
2023-03-30T06:25:10.211Z,3.50
2023-03-30T06:27:37.579Z,4.00
2023-03-30T06:30:05.545Z,3.60
2023-03-30T06:32:32.368Z,3.30
2023-03-30T06:34:59.303Z,4.10
2023-03-30T06:37:26.271Z,3.70
2023-03-30T06:39:53.766Z,4.00
2023-03-30T06:42:20.988Z,3.80
2023-03-30T06:44:49.755Z,3.50
2023-03-30T06:47:17.036Z,3.30
2023-03-30T06:49:43.897Z,3.80
2023-03-30T06:52:11.784Z,3.50
2023-03-30T06:54:39.002Z,3.30
2023-03-30T06:57:06.119Z,3.90
2023-03-30T06:59:34.684Z,4.50
2023-03-30T07:02:01.870Z,3.70
2023-03-30T07:04:28.624Z,3.70
2023-03-30T07:06:58.400Z,3.40
2023-03-30T07:09:26.449Z,3.10
2023-03-30T07:11:54.450Z,5.10
2023-03-30T07:16:50.287Z,3.90
2023-03-30T07:19:17.163Z,3.40
2023-03-30T07:21:43.924Z,3.30
2023-03-30T07:24:10.884Z,3.20
2023-03-30T07:26:37.768Z,3.10
2023-03-30T07:29:05.975Z,2.90
2023-03-30T07:31:33.195Z,3.40
2023-03-30T07:34:03.216Z,3.10
2023-03-30T07:36:30.265Z,3.20
2023-03-30T07:38:58.634Z,3.30
2023-03-30T07:44:06.856Z,3.80
2023-03-30T07:46:33.826Z,3.70
2023-03-30T07:49:01.031Z,3.40
2023-03-30T07:51:28.510Z,3.40
2023-03-30T07:53:55.338Z,3.30
2023-03-30T07:56:22.222Z,3.10
2023-03-30T07:58:49.218Z,3.30
2023-03-30T08:01:16.228Z,3.20
2023-03-30T08:03:45.293Z,2.70
2023-03-30T08:06:12.436Z,3.50
2023-03-30T08:08:42.025Z,3.00
2023-03-30T08:11:10.841Z,2.90
2023-03-30T08:13:37.958Z,2.80
2023-03-30T08:16:05.149Z,2.80
2023-03-30T08:18:32.082Z,2.90
2023-03-30T08:20:58.864Z,5.50
2023-03-30T08:23:25.960Z,3.90
2023-03-30T08:25:57.286Z,2.80
2023-03-30T08:28:24.458Z,2.80
2023-03-30T08:30:51.697Z,3.10
2023-03-30T08:33:18.638Z,2.30
2023-03-30T08:35:46.946Z,2.60
2023-03-30T08:38:17.942Z,2.60
2023-03-30T08:40:48.126Z,2.90
2023-03-30T08:43:30.031Z,2.90
2023-03-30T08:46:00.641Z,3.10
2023-03-30T08:48:31.254Z,2.40
2023-03-30T08:51:02.995Z,2.60
2023-03-30T08:53:33.688Z,3.00
2023-03-30T08:56:16.499Z,2.50
2023-03-30T08:59:09.317Z,3.30
2023-03-30T09:01:45.181Z,2.80
2023-03-30T09:04:27.377Z,2.60
2023-03-30T09:06:59.872Z,2.50
2023-03-30T09:09:30.814Z,2.70
2023-03-30T09:12:18.027Z,2.70
2023-03-30T09:18:00.866Z,3.00
2023-03-30T09:20:30.882Z,2.50
2023-03-30T09:23:02.224Z,2.70
2023-03-30T09:25:43.053Z,2.70
2023-03-30T09:28:17.675Z,2.60
2023-03-30T09:30:57.226Z,3.20
2023-03-30T09:33:33.687Z,3.30
2023-03-30T09:36:23.646Z,2.60
2023-03-30T09:38:50.589Z,3.50
2023-03-30T09:41:36.043Z,3.00
2023-03-30T09:44:03.039Z,2.70
2023-03-30T09:46:29.991Z,2.40
2023-03-30T09:49:13.976Z,3.30
2023-03-30T09:51:55.012Z,2.80
2023-03-30T09:54:23.658Z,3.00
2023-03-30T09:56:54.511Z,3.40
2023-03-30T09:59:28.809Z,3.40
2023-03-30T10:02:10.720Z,2.90
2023-03-30T10:05:00.643Z,2.70
2023-03-30T10:07:38.045Z,2.70
2023-03-30T10:10:16.213Z,2.60
2023-03-30T10:12:43.806Z,2.50
2023-03-30T10:15:17.716Z,2.50
2023-03-30T10:17:47.789Z,2.80
2023-03-30T10:20:25.449Z,2.50
2023-03-30T10:23:00.531Z,2.50
2023-03-30T10:25:28.753Z,2.50
2023-03-30T10:28:01.465Z,2.80
2023-03-30T10:30:29.511Z,2.80
2023-03-30T10:32:59.526Z,2.30
2023-03-30T10:35:38.602Z,2.60
2023-03-30T10:38:08.305Z,2.60
2023-03-30T10:40:39.643Z,2.10
2023-03-30T10:43:13.322Z,3.20
2023-03-30T10:45:46.803Z,2.90
2023-03-30T10:51:40.200Z,2.40
2023-03-30T10:54:32.726Z,3.00
2023-03-30T10:57:14.998Z,2.20
2023-03-30T11:00:10.206Z,2.40
2023-03-30T11:03:00.786Z,2.30
2023-03-30T11:05:35.815Z,2.10
2023-03-30T11:08:11.810Z,2.40
2023-03-30T11:10:44.285Z,2.50
2023-03-30T11:13:29.201Z,2.40
2023-03-30T11:16:02.341Z,2.50
2023-03-30T11:18:38.905Z,3.80
2023-03-30T11:21:11.521Z,3.60
2023-03-30T11:24:04.585Z,2.60
2023-03-30T11:26:47.937Z,2.60
2023-03-30T11:29:28.554Z,2.90
2023-03-30T11:32:23.322Z,2.60
2023-03-30T11:34:59.077Z,2.60
2023-03-30T11:37:36.608Z,2.60
2023-03-30T11:40:18.923Z,2.80
2023-03-30T11:42:47.657Z,2.70
2023-03-30T11:45:33.754Z,3.00
2023-03-30T11:48:17.116Z,2.50
2023-03-30T11:51:01.535Z,2.20
2023-03-30T11:53:39.338Z,3.00
2023-03-30T11:56:08.156Z,2.80
2023-03-30T11:58:36.414Z,2.50
2023-03-30T12:01:29.755Z,2.60
2023-03-30T12:04:05.556Z,2.60
2023-03-30T12:07:02.055Z,2.40
2023-03-30T12:09:35.643Z,2.60
2023-03-30T12:12:16.150Z,2.60
2023-03-30T12:14:46.035Z,2.40
2023-03-30T12:17:47.560Z,2.50
2023-03-30T12:20:48.495Z,2.50
2023-03-30T12:23:15.140Z,2.60
2023-03-30T12:26:08.819Z,2.70
2023-03-30T12:29:15.272Z,2.60
2023-03-30T12:32:05.614Z,2.90
2023-03-30T12:34:35.645Z,2.60
2023-03-30T12:37:13.554Z,2.60
2023-03-30T12:39:51.606Z,2.90
2023-03-30T12:42:27.627Z,2.40
2023-03-30T12:45:03.968Z,2.50
2023-03-30T12:47:50.885Z,2.80
2023-03-30T12:50:50.950Z,3.00
2023-03-30T12:53:47.483Z,4.10
2023-03-30T12:56:37.138Z,2.30
2023-03-30T12:59:07.163Z,2.60
2023-03-30T13:01:46.248Z,2.40
2023-03-30T13:04:27.990Z,2.40
2023-03-30T13:06:58.865Z,2.60
2023-03-30T13:09:25.911Z,2.70
2023-03-30T13:11:52.520Z,2.70
2023-03-30T13:14:27.191Z,2.50
2023-03-30T13:16:53.890Z,2.80
2023-03-30T13:19:41.238Z,2.40
2023-03-30T13:22:11.447Z,3.10
2023-03-30T13:24:58.625Z,2.90
2023-03-30T13:27:37.473Z,3.30
2023-03-30T13:30:07.985Z,2.70
2023-03-30T13:32:43.970Z,2.60
2023-03-30T13:35:31.628Z,2.50
2023-03-30T13:38:18.457Z,3.10
2023-03-30T13:41:05.122Z,3.00
2023-03-30T13:43:47.534Z,2.60
2023-03-30T13:46:31.529Z,2.80
2023-03-30T13:49:10.528Z,2.40
2023-03-30T13:51:42.522Z,3.10
2023-03-30T13:54:21.969Z,2.50
2023-03-30T13:56:57.059Z,2.40
2023-03-30T13:59:29.517Z,2.80
2023-03-30T14:01:59.229Z,2.80
2023-03-30T14:04:33.667Z,3.00
2023-03-30T14:07:16.503Z,2.80
2023-03-30T14:09:44.713Z,2.70
2023-03-30T14:12:13.980Z,3.30
2023-03-30T14:14:48.651Z,2.50
2023-03-30T14:17:25.777Z,2.20
2023-03-30T14:20:27.753Z,2.60
2023-03-30T14:22:56.818Z,3.20
2023-03-30T14:25:28.108Z,3.20
2023-03-30T14:27:57.989Z,2.80
2023-03-30T14:30:31.609Z,3.90
2023-03-30T14:33:07.413Z,3.30
2023-03-30T14:35:37.845Z,3.50
2023-03-30T14:40:40.805Z,3.10
2023-03-30T14:43:13.763Z,3.60
2023-03-30T14:45:41.768Z,4.00
2023-03-30T14:48:19.325Z,3.70
2023-03-30T14:50:46.856Z,3.60
2023-03-30T14:53:13.592Z,3.60
2023-03-30T14:55:40.932Z,3.70
2023-03-30T14:58:14.318Z,3.20
2023-03-30T15:00:42.347Z,3.60
2023-03-30T15:03:22.754Z,3.50
2023-03-30T15:06:01.657Z,3.60
2023-03-30T15:08:32.989Z,3.80
2023-03-30T15:11:21.829Z,3.80
2023-03-30T15:14:04.061Z,3.30
2023-03-30T15:16:33.726Z,3.80
2023-03-30T15:21:41.182Z,2.80
2023-03-30T15:24:13.081Z,3.90
2023-03-30T15:26:48.646Z,3.60
2023-03-30T15:29:18.693Z,4.40
2023-03-30T15:31:45.711Z,4.70
2023-03-30T15:34:18.109Z,4.10
2023-03-30T15:36:45.633Z,3.90
2023-03-30T15:39:33.818Z,4.30
2023-03-30T15:42:04.598Z,4.50
2023-03-30T15:44:41.681Z,4.10
2023-03-30T15:47:18.074Z,4.20
2023-03-30T15:49:51.904Z,4.30
2023-03-30T15:52:23.341Z,5.00
2023-03-30T15:54:55.446Z,4.60
2023-03-30T15:57:25.306Z,4.70
2023-03-30T16:00:09.598Z,4.30
2023-03-30T16:02:46.652Z,5.20
2023-03-30T16:05:20.719Z,4.50
2023-03-30T16:07:47.722Z,4.30
2023-03-30T16:10:17.733Z,4.30
2023-03-30T16:12:46.199Z,4.10
2023-03-30T16:15:21.739Z,3.60
2023-03-30T16:17:48.517Z,4.20
2023-03-30T16:20:16.761Z,4.20
2023-03-30T16:22:43.892Z,4.90
2023-03-30T16:25:10.702Z,4.80
2023-03-30T16:27:38.207Z,4.50
2023-03-30T16:30:23.541Z,4.50
2023-03-30T16:32:50.775Z,4.10
2023-03-30T16:35:17.556Z,4.30
2023-03-30T16:37:44.253Z,5.40
2023-03-30T16:40:22.121Z,4.60
2023-03-30T16:42:48.920Z,5.00
2023-03-30T16:45:16.500Z,4.60
2023-03-30T16:47:44.328Z,4.60
2023-03-30T16:50:17.121Z,4.40
2023-03-30T16:52:43.865Z,4.90
2023-03-30T16:55:10.623Z,4.70
2023-03-30T16:57:37.377Z,4.70
2023-03-30T17:00:27.202Z,4.90
2023-03-30T17:02:54.265Z,4.70
2023-03-30T17:05:21.357Z,4.60
2023-03-30T17:07:48.954Z,4.60
2023-03-30T17:10:34.732Z,4.90
2023-03-30T17:13:01.788Z,4.50
2023-03-30T17:15:29.213Z,4.70
2023-03-30T17:17:56.548Z,4.70
2023-03-30T17:20:37.404Z,5.30
2023-03-30T17:23:05.323Z,5.70
2023-03-30T17:25:32.515Z,6.30
2023-03-30T17:27:59.689Z,6.60
2023-03-30T17:37:18.105Z,6.40
2023-03-30T17:39:46.325Z,6.60
2023-03-30T17:42:13.101Z,7.70
2023-03-30T17:44:39.831Z,6.90
2023-03-30T17:47:07.232Z,7.40
2023-03-30T17:49:49.609Z,7.60
2023-03-30T17:52:40.301Z,8.00
2023-03-30T17:55:39.013Z,7.30
2023-03-30T17:58:18.844Z,6.80
2023-03-30T18:00:47.167Z,6.80
2023-03-30T18:03:15.906Z,6.90
2023-03-30T18:05:44.738Z,7.10
2023-03-30T18:08:21.428Z,7.20
2023-03-30T18:10:51.825Z,6.40
2023-03-30T18:13:22.724Z,6.70
2023-03-30T18:15:52.260Z,6.20
2023-03-30T18:18:25.182Z,6.60
2023-03-30T18:20:53.047Z,6.80
2023-03-30T18:23:20.552Z,6.50
2023-03-30T18:25:47.922Z,7.70
2023-03-30T18:28:25.066Z,7.30
2023-03-30T18:30:55.388Z,7.00
2023-03-30T18:33:22.222Z,7.90
2023-03-30T18:35:51.513Z,8.00
2023-03-30T18:38:21.150Z,10.50
2023-03-30T18:40:50.351Z,10.40
2023-03-30T18:43:17.368Z,8.00
2023-03-30T18:45:50.071Z,6.90
2023-03-30T18:48:19.342Z,6.90
2023-03-30T18:50:51.949Z,7.20
2023-03-30T18:53:24.410Z,7.30
2023-03-30T18:55:53.990Z,7.60
2023-03-30T18:58:24.398Z,6.80
2023-03-30T19:00:53.320Z,6.80
2023-03-30T19:03:22.378Z,6.30
2023-03-30T19:05:50.382Z,7.00
2023-03-30T19:08:19.837Z,6.30
2023-03-30T19:10:50.042Z,6.30
2023-03-30T19:13:19.339Z,6.20
2023-03-30T19:15:47.423Z,5.50
2023-03-30T19:18:15.494Z,5.40
2023-03-30T19:20:42.503Z,6.20
2023-03-30T19:23:16.519Z,6.10
2023-03-30T19:25:44.702Z,6.10
2023-03-30T19:28:12.434Z,6.20
2023-03-30T19:30:40.410Z,6.00
2023-03-30T19:33:12.316Z,7.20
2023-03-30T19:35:44.894Z,7.40
2023-03-30T19:38:12.101Z,7.30
2023-03-30T19:40:39.835Z,7.20
2023-03-30T19:43:07.772Z,6.30
2023-03-30T19:45:34.739Z,6.50
2023-03-30T19:48:01.670Z,6.20
2023-03-30T19:50:30.146Z,7.10
2023-03-30T19:52:58.163Z,6.50
2023-03-30T19:55:25.210Z,6.70
2023-03-30T19:57:52.012Z,6.90
2023-03-30T20:00:20.036Z,6.80
2023-03-30T20:02:52.108Z,6.70
2023-03-30T20:05:21.253Z,6.40
2023-03-30T20:07:49.754Z,6.50
2023-03-30T20:10:20.530Z,6.50
2023-03-30T20:12:48.476Z,6.80
2023-03-30T20:15:15.944Z,7.30
2023-03-30T20:17:43.297Z,6.80
2023-03-30T20:20:13.268Z,6.40
2023-03-30T20:22:44.810Z,6.70
2023-03-30T20:25:14.500Z,6.60
2023-03-30T20:30:25.824Z,6.30
2023-03-30T20:33:06.906Z,5.40
2023-03-30T20:35:38.536Z,5.70
2023-03-30T20:38:06.357Z,4.70
2023-03-30T20:40:33.284Z,5.10
2023-03-30T20:43:02.288Z,5.20
2023-03-30T20:45:30.933Z,5.10
2023-03-30T20:48:06.251Z,4.90
2023-03-30T20:50:34.078Z,4.60
2023-03-30T20:53:01.781Z,4.90
2023-03-30T20:55:28.759Z,4.90
2023-03-30T20:57:55.642Z,4.90
2023-03-30T21:00:22.791Z,5.20
2023-03-30T21:02:49.782Z,4.60
2023-03-30T21:05:16.817Z,4.80
2023-03-30T21:07:47.424Z,5.10
2023-03-30T21:10:16.635Z,5.40
2023-03-30T21:12:43.577Z,5.90
2023-03-30T21:15:11.430Z,5.00
2023-03-30T21:17:38.391Z,5.40
2023-03-30T21:20:09.038Z,5.50
2023-03-30T21:22:36.011Z,5.00
2023-03-30T21:25:02.968Z,5.50
2023-03-30T21:27:29.797Z,4.80
2023-03-30T21:29:57.032Z,4.90
2023-03-30T21:32:23.946Z,5.10
2023-03-30T21:34:50.867Z,5.40
2023-03-30T21:37:17.554Z,5.00
2023-03-30T21:39:45.212Z,5.40
2023-03-30T21:42:12.009Z,4.90
2023-03-30T21:44:38.918Z,5.10
2023-03-30T21:47:05.740Z,5.40
2023-03-30T21:49:33.108Z,5.40
2023-03-30T21:51:59.926Z,5.60
2023-03-30T21:54:27.203Z,6.10
2023-03-30T21:56:54.134Z,5.20
2023-03-30T21:59:20.862Z,4.50
2023-03-30T22:01:47.656Z,5.20
2023-03-30T22:04:14.682Z,5.00
2023-03-30T22:06:41.428Z,5.10
2023-03-30T22:09:08.191Z,5.10
2023-03-30T22:11:35.719Z,5.20
2023-03-30T22:14:02.436Z,4.80
2023-03-30T22:16:35.206Z,5.50
2023-03-30T22:19:03.090Z,5.40
2023-03-30T22:21:34.624Z,5.50
2023-03-30T22:24:07.054Z,5.50
2023-03-30T22:26:34.996Z,5.40
2023-03-30T22:29:01.878Z,5.40
2023-03-30T22:31:28.837Z,6.00
2023-03-30T22:33:56.502Z,5.80
2023-03-30T22:36:26.418Z,5.30
2023-03-30T22:38:53.617Z,5.60
2023-03-30T22:41:24.260Z,5.50
2023-03-30T22:43:56.242Z,5.20
2023-03-30T22:46:25.169Z,5.10
2023-03-30T22:48:52.598Z,5.50
2023-03-30T22:51:26.758Z,5.30
2023-03-30T22:53:58.837Z,5.90
2023-03-30T22:56:27.579Z,4.90
2023-03-30T22:58:54.884Z,6.00
2023-03-30T23:01:21.947Z,5.90
2023-03-30T23:03:48.782Z,6.60
2023-03-30T23:06:19.212Z,5.60
2023-03-30T23:08:48.594Z,5.90
2023-03-30T23:11:16.359Z,5.50
2023-03-30T23:13:43.226Z,5.40
2023-03-30T23:16:10.913Z,6.00
2023-03-30T23:18:38.817Z,5.80
2023-03-30T23:21:11.339Z,6.40
2023-03-30T23:23:38.670Z,5.90
2023-03-30T23:26:10.872Z,6.00
2023-03-30T23:28:40.377Z,6.10
2023-03-30T23:31:13.099Z,6.30
2023-03-30T23:33:41.186Z,6.00
2023-03-30T23:36:08.954Z,5.50
2023-03-30T23:38:36.638Z,6.50
2023-03-30T23:41:03.526Z,6.10
2023-03-30T23:43:30.614Z,6.60
2023-03-30T23:45:57.457Z,5.80
2023-03-30T23:48:24.289Z,6.20
2023-03-30T23:50:51.046Z,6.90
2023-03-30T23:53:19.717Z,6.70
2023-03-30T23:55:50.004Z,6.60
2023-03-30T23:58:18.227Z,6.20
